Terminal Aerodrome Forecast
Issued by NWS Jackson, MS

Home | Current Version | Previous Version | Text Only | Print | Product List | Glossary On
Versions: 1 2 3 4 5 6 7 8 9 10 11 12 13 14 15 16 17
000
FTUS44 KJAN 160500
TAFHBG
TAF
KHBG 160520Z 1606/1706 VRB03KT P6SM FEW030 BKN200
     FM161430 36003KT P6SM SCT050 BKN170
     FM161900 35006KT P6SM VCTS BKN040CB BKN150
     FM170100 36003KT P6SM SCT100 OVC250=

USA.gov is the U.S. government's official web portal to all federal, state and local government web resources and services.